Time;durP1;ratioP1;P1;durP2;ratioP2;P2;SDS_P1;SDS_P2;PMS_P1;PMS_P2;Temp;Humidity;BMP_temperature;BMP_pressure;BME280_temperature;BME280_humidity;BME280_pressure;Samples;Min_cycle;Max_cycle;Signal;HPM_P1;HPM_P2
2022/11/26 00:00:51;;;;;;;18.98;4.60;;;5.60;99.90;;;;;;5093038;28;20052;-76
2022/11/26 00:03:16;;;;;;;20.88;4.75;;;5.60;99.90;;;;;;5093191;28;20131;-77
2022/11/26 00:05:44;;;;;;;23.63;5.72;;;5.60;99.90;;;;;;5091468;28;20115;-77
2022/11/26 00:08:25;;;;;;;25.63;6.75;;;5.40;99.90;;;;;;5092141;28;20052;-77
2022/11/26 00:10:52;;;;;;;18.42;5.13;;;5.60;99.90;;;;;;5091262;28;20048;-78
2022/11/26 00:13:21;;;;;;;21.45;5.15;;;5.50;99.90;;;;;;5088705;28;20503;-76
2022/11/26 00:15:48;;;;;;;14.45;4.50;;;5.50;99.90;;;;;;5093295;28;20043;-77
2022/11/26 00:18:14;;;;;;;18.90;4.43;;;5.50;99.90;;;;;;5093026;28;20032;-76
2022/11/26 00:20:41;;;;;;;17.45;4.47;;;5.50;99.90;;;;;;5091234;28;20119;-78
2022/11/26 00:23:15;;;;;;;19.92;5.15;;;5.50;99.90;;;;;;5093091;28;20043;-75
2022/11/26 00:25:43;;;;;;;16.40;7.20;;;5.50;99.90;;;;;;5091875;28;20032;-77
2022/11/26 00:28:35;;;;;;;32.88;9.50;;;5.40;99.90;;;;;;5083017;28;20365;-74
2022/11/26 00:31:06;;;;;;;16.92;5.75;;;5.50;99.90;;;;;;5091642;28;20048;-71
2022/11/26 00:33:32;;;;;;;23.25;6.13;;;5.40;99.90;;;;;;5090751;28;20427;-76
2022/11/26 00:36:10;;;;;;;19.60;4.78;;;5.60;99.90;;;;;;5073234;28;20480;-75
2022/11/26 00:38:36;;;;;;;19.05;5.70;;;5.50;99.90;;;;;;5092888;28;20046;-75
2022/11/26 00:41:02;;;;;;;19.88;6.05;;;5.40;99.90;;;;;;5091801;28;20028;-77
2022/11/26 00:43:27;;;;;;;15.77;5.32;;;5.40;99.90;;;;;;5091582;28;20467;-75
2022/11/26 00:45:53;;;;;;;21.42;5.50;;;5.50;99.90;;;;;;5091398;28;20036;-77
2022/11/26 00:48:19;;;;;;;23.52;6.22;;;5.40;99.90;;;;;;5090508;28;20040;-76
2022/11/26 00:50:48;;;;;;;27.73;5.45;;;5.40;99.90;;;;;;5070858;28;20055;-78
2022/11/26 00:53:17;;;;;;;20.55;5.07;;;5.50;99.90;;;;;;5092230;28;20067;-76
2022/11/26 00:55:46;;;;;;;20.63;6.00;;;5.40;99.90;;;;;;5092560;28;20082;-76
2022/11/26 00:58:30;;;;;;;16.08;5.03;;;6.70;99.90;;;;;;5090812;28;20115;-76
2022/11/26 01:00:57;;;;;;;24.77;6.30;;;5.40;99.90;;;;;;5090899;28;20048;-75
2022/11/26 01:03:23;;;;;;;25.13;5.80;;;5.40;99.90;;;;;;5089958;28;20036;-76
2022/11/26 01:05:51;;;;;;;18.63;6.20;;;5.30;99.90;;;;;;5090602;28;20086;-77
2022/11/26 01:08:30;;;;;;;18.52;6.18;;;5.40;99.90;;;;;;5091432;28;20040;-76
2022/11/26 01:10:57;;;;;;;21.65;6.00;;;5.40;99.90;;;;;;5089162;28;20052;-77
2022/11/26 01:13:23;;;;;;;19.50;5.05;;;5.40;99.90;;;;;;5090632;28;20051;-77
2022/11/26 01:15:49;;;;;;;17.90;5.18;;;5.60;99.90;;;;;;5091635;28;20050;-75
2022/11/26 01:18:18;;;;;;;24.50;5.88;;;5.30;99.90;;;;;;5092001;28;20044;-76
2022/11/26 01:20:44;;;;;;;26.73;6.50;;;5.30;99.90;;;;;;5091749;28;20044;-74
2022/11/26 01:23:13;;;;;;;16.13;4.93;;;5.30;99.90;;;;;;5091250;28;20063;-76
2022/11/26 01:25:39;;;;;;;15.80;5.22;;;5.30;99.90;;;;;;5090920;28;20032;-77
2022/11/26 01:28:09;;;;;;;20.27;5.97;;;5.30;99.90;;;;;;5089672;28;20369;-73
2022/11/26 01:30:35;;;;;;;17.33;4.78;;;5.30;99.90;;;;;;5072869;28;20090;-76
2022/11/26 01:33:01;;;;;;;22.30;5.35;;;5.30;99.90;;;;;;5072475;28;20573;-73
2022/11/26 01:35:27;;;;;;;19.23;4.75;;;5.30;99.90;;;;;;5091817;28;20052;-75
2022/11/26 01:37:53;;;;;;;25.48;5.10;;;5.30;99.90;;;;;;5087852;28;20090;-75
2022/11/26 01:40:25;;;;;;;19.42;5.45;;;5.30;99.90;;;;;;5091489;28;20108;-75
2022/11/26 01:42:58;;;;;;;20.35;6.30;;;5.30;99.90;;;;;;5070642;28;20044;-73
2022/11/26 01:45:25;;;;;;;22.75;5.18;;;5.30;99.90;;;;;;5090766;28;20036;-75
2022/11/26 01:47:51;;;;;;;26.73;6.30;;;5.20;99.90;;;;;;5093623;28;20067;-76
2022/11/26 01:50:33;;;;;;;23.63;5.63;;;5.20;99.90;;;;;;5073224;28;20076;-77
2022/11/26 01:53:01;;;;;;;21.35;5.18;;;5.20;99.90;;;;;;5090053;28;20052;-76
2022/11/26 01:55:37;;;;;;;18.35;4.20;;;7.10;99.90;;;;;;5091247;28;20048;-74
2022/11/26 01:58:06;;;;;;;17.25;4.90;;;5.20;99.90;;;;;;5089778;28;20040;-75
2022/11/26 02:00:32;;;;;;;22.35;5.57;;;5.20;99.90;;;;;;5091442;28;20035;-77
2022/11/26 02:02:58;;;;;;;24.85;5.63;;;6.70;99.90;;;;;;5089630;28;20131;-77
2022/11/26 02:05:28;;;;;;;18.52;5.60;;;5.90;99.90;;;;;;5090550;28;20051;-76
2022/11/26 02:07:55;;;;;;;12.85;5.25;;;5.20;99.90;;;;;;5089604;28;20040;-77
2022/11/26 02:10:21;;;;;;;15.35;4.90;;;5.20;99.90;;;;;;5090757;28;20067;-76
2022/11/26 02:12:47;;;;;;;12.73;4.28;;;5.20;99.90;;;;;;5089676;28;20044;-77
2022/11/26 02:15:13;;;;;;;21.00;5.10;;;5.10;99.90;;;;;;5089725;28;20488;-77
2022/11/26 02:17:47;;;;;;;15.20;5.38;;;5.10;99.90;;;;;;5088809;28;20057;-76
2022/11/26 02:20:42;;;;;;;11.93;4.47;;;5.10;99.90;;;;;;5082248;28;20062;-76
2022/11/26 02:23:19;;;;;;;22.02;5.15;;;5.10;99.90;;;;;;5090301;28;20118;-77
2022/11/26 02:25:57;;;;;;;15.57;4.70;;;6.10;99.90;;;;;;5088814;28;20044;-77
2022/11/26 02:29:01;;;;;;;12.98;4.72;;;5.10;99.90;;;;;;5087998;28;20052;-76
2022/11/26 02:31:37;;;;;;;14.82;4.68;;;5.10;99.90;;;;;;5083516;28;20040;-77
2022/11/26 02:34:13;;;;;;;15.23;4.07;;;5.10;99.90;;;;;;5071364;28;20101;-77
2022/11/26 02:37:00;;;;;;;18.10;4.50;;;5.00;99.90;;;;;;5089631;28;20363;-77
2022/11/26 02:39:29;;;;;;;21.08;5.10;;;5.00;99.90;;;;;;5083220;28;20040;-76
2022/11/26 02:41:57;;;;;;;12.52;3.97;;;5.00;99.90;;;;;;5088103;28;20036;-75
2022/11/26 02:44:37;;;;;;;15.13;4.10;;;5.00;99.90;;;;;;5089088;28;20052;-77
2022/11/26 02:47:09;;;;;;;11.32;4.00;;;5.00;99.90;;;;;;5089433;28;20367;-76
2022/11/26 02:49:38;;;;;;;11.63;4.07;;;5.00;99.90;;;;;;5067495;28;20127;-75
2022/11/26 02:52:05;;;;;;;15.52;5.28;;;5.00;99.90;;;;;;5089530;28;20044;-74
2022/11/26 02:54:32;;;;;;;19.92;6.15;;;4.90;99.90;;;;;;5089674;28;20047;-73
2022/11/26 02:57:01;;;;;;;14.55;4.75;;;5.20;99.90;;;;;;5071956;28;20089;-75
2022/11/26 02:59:27;;;;;;;18.23;5.63;;;4.90;99.90;;;;;;5088751;28;20056;-74
2022/11/26 03:02:05;;;;;;;17.10;4.75;;;4.90;99.90;;;;;;5085495;28;20041;-76
2022/11/26 03:04:36;;;;;;;16.30;5.22;;;6.40;99.90;;;;;;5090117;28;20048;-77
2022/11/26 03:07:04;;;;;;;13.77;4.90;;;4.90;99.90;;;;;;5089443;28;20043;-74
2022/11/26 03:09:52;;;;;;;23.23;5.05;;;4.80;99.90;;;;;;5087692;28;20123;-75
2022/11/26 03:12:18;;;;;;;14.73;4.53;;;4.80;99.90;;;;;;5063429;28;20491;-74
2022/11/26 03:14:43;;;;;;;16.75;5.97;;;5.20;99.90;;;;;;5089216;28;20083;-74
2022/11/26 03:17:09;;;;;;;18.30;6.03;;;4.80;99.90;;;;;;5094184;28;20080;-73
2022/11/26 03:19:35;;;;;;;23.40;6.38;;;4.80;99.90;;;;;;5089898;28;20065;-74
2022/11/26 03:22:00;;;;;;;23.02;6.75;;;4.80;99.90;;;;;;5088709;28;20499;-74
2022/11/26 03:24:26;;;;;;;19.13;6.07;;;4.80;99.90;;;;;;5088979;28;20162;-75
2022/11/26 03:26:51;;;;;;;15.45;5.78;;;4.80;99.90;;;;;;5087319;28;20419;-76
2022/11/26 03:29:17;;;;;;;25.10;6.50;;;4.90;99.90;;;;;;5088505;28;20162;-76
2022/11/26 03:31:43;;;;;;;24.17;6.90;;;4.90;99.90;;;;;;5088517;28;20048;-77
2022/11/26 03:34:08;;;;;;;26.67;6.57;;;4.90;99.90;;;;;;5088009;28;20746;-77
2022/11/26 03:36:34;;;;;;;27.23;6.78;;;4.90;99.90;;;;;;5087776;28;20044;-77
2022/11/26 03:39:00;;;;;;;22.15;6.47;;;4.90;99.90;;;;;;5089035;28;20036;-77
2022/11/26 03:41:26;;;;;;;19.67;5.93;;;4.80;99.90;;;;;;5089788;28;20044;-77
2022/11/26 03:43:51;;;;;;;19.80;6.28;;;4.80;99.90;;;;;;5087406;28;20055;-76
2022/11/26 03:46:17;;;;;;;19.88;6.20;;;4.90;99.90;;;;;;5072034;28;20070;-72
2022/11/26 03:48:42;;;;;;;23.95;7.20;;;4.90;99.90;;;;;;5088568;28;20052;-73
2022/11/26 03:51:08;;;;;;;17.38;6.35;;;5.00;99.90;;;;;;5088870;28;20036;-75
2022/11/26 03:53:34;;;;;;;22.75;5.50;;;6.10;99.90;;;;;;5089725;28;20063;-77
2022/11/26 03:55:59;;;;;;;17.80;5.20;;;4.80;99.90;;;;;;5087897;28;20132;-77
2022/11/26 03:58:25;;;;;;;15.23;4.70;;;4.80;99.90;;;;;;5088288;28;20048;-77
2022/11/26 04:00:50;;;;;;;20.27;6.15;;;4.80;99.90;;;;;;5087909;28;20490;-75
2022/11/26 04:03:16;;;;;;;13.63;5.43;;;4.70;99.90;;;;;;5087906;28;20052;-74
2022/11/26 04:05:42;;;;;;;18.75;5.97;;;4.70;99.90;;;;;;5087893;28;20044;-76
2022/11/26 04:08:07;;;;;;;13.57;4.97;;;4.70;99.90;;;;;;5070345;28;20123;-77
2022/11/26 04:10:33;;;;;;;20.38;4.90;;;4.70;99.90;;;;;;5089492;28;20365;-75
2022/11/26 04:12:59;;;;;;;20.38;5.47;;;6.00;99.90;;;;;;5088543;28;20528;-77
2022/11/26 04:15:24;;;;;;;13.00;4.40;;;4.80;99.90;;;;;;5089298;28;20090;-77
2022/11/26 04:17:50;;;;;;;16.00;5.57;;;4.60;99.90;;;;;;5088137;28;20086;-76
2022/11/26 04:20:16;;;;;;;14.95;4.93;;;4.70;99.90;;;;;;5087112;28;20046;-74
2022/11/26 04:22:41;;;;;;;18.27;5.60;;;4.60;99.90;;;;;;5089002;28;20043;-76
2022/11/26 04:25:07;;;;;;;25.08;5.72;;;4.60;99.90;;;;;;5086653;28;20101;-76
2022/11/26 04:27:33;;;;;;;19.50;5.47;;;4.60;99.90;;;;;;5087985;28;20460;-76
2022/11/26 04:30:00;;;;;;;26.40;6.07;;;4.60;99.90;;;;;;5088011;28;20433;-76
2022/11/26 04:32:26;;;;;;;15.18;5.55;;;4.90;99.90;;;;;;5087685;28;20342;-77
2022/11/26 04:34:52;;;;;;;24.90;6.57;;;4.60;99.90;;;;;;5087439;28;20506;-75
2022/11/26 04:37:17;;;;;;;25.02;6.57;;;4.70;99.90;;;;;;5088641;28;20097;-76
2022/11/26 04:39:43;;;;;;;15.52;5.93;;;4.50;99.90;;;;;;5086903;28;20127;-76
2022/11/26 04:42:09;;;;;;;18.98;5.70;;;4.60;99.90;;;;;;5090656;28;20039;-77
2022/11/26 04:44:34;;;;;;;19.40;5.35;;;4.90;99.90;;;;;;5091846;28;20439;-76
2022/11/26 04:47:00;;;;;;;14.32;5.63;;;4.60;99.90;;;;;;5092119;28;20044;-77
2022/11/26 04:49:26;;;;;;;13.20;5.55;;;4.60;99.90;;;;;;5092435;28;20143;-77
2022/11/26 04:51:51;;;;;;;17.95;5.75;;;4.60;99.90;;;;;;5092247;28;20047;-77
2022/11/26 04:54:17;;;;;;;21.60;5.07;;;4.60;99.90;;;;;;5090307;28;20047;-77
2022/11/26 04:56:42;;;;;;;8.23;4.72;;;4.60;99.90;;;;;;5092999;28;20036;-74
2022/11/26 04:59:08;;;;;;;21.02;4.88;;;4.60;99.90;;;;;;5090938;28;20461;-77
2022/11/26 05:01:34;;;;;;;23.60;5.25;;;4.60;99.90;;;;;;5073619;28;20036;-76
2022/11/26 05:03:59;;;;;;;13.27;4.45;;;5.10;99.90;;;;;;5074002;28;20046;-76
2022/11/26 05:06:25;;;;;;;16.23;5.30;;;4.60;99.90;;;;;;5090525;28;20024;-77
2022/11/26 05:08:51;;;;;;;11.98;4.20;;;4.60;99.90;;;;;;5088059;28;20043;-75
2022/11/26 05:11:16;;;;;;;14.65;5.25;;;4.60;99.90;;;;;;5090380;28;20043;-73
2022/11/26 05:13:42;;;;;;;17.55;6.05;;;4.50;99.90;;;;;;5092224;28;20110;-75
2022/11/26 05:16:08;;;;;;;16.27;5.72;;;4.50;99.90;;;;;;5090964;28;20113;-74
2022/11/26 05:18:33;;;;;;;20.27;5.68;;;4.40;99.90;;;;;;5074519;28;20078;-73
2022/11/26 05:20:59;;;;;;;16.10;5.47;;;4.40;99.90;;;;;;5091515;28;20044;-75
2022/11/26 05:23:24;;;;;;;21.02;6.70;;;4.40;99.90;;;;;;5090044;28;20032;-74
2022/11/26 05:25:50;;;;;;;21.27;5.90;;;4.40;99.90;;;;;;5090472;28;20044;-75
2022/11/26 05:28:17;;;;;;;21.70;5.85;;;4.50;99.90;;;;;;5088990;28;20087;-75
2022/11/26 05:30:43;;;;;;;25.42;7.75;;;4.70;99.90;;;;;;5090028;28;20032;-74
2022/11/26 05:33:09;;;;;;;25.17;7.05;;;4.70;99.90;;;;;;5073557;28;20079;-76
2022/11/26 05:35:36;;;;;;;21.42;6.50;;;4.50;99.90;;;;;;5089529;28;20479;-76
2022/11/26 05:38:02;;;;;;;17.52;6.63;;;5.50;99.90;;;;;;5072954;28;20071;-77
2022/11/26 05:40:28;;;;;;;16.42;6.22;;;4.50;99.90;;;;;;5073284;28;20107;-72
2022/11/26 05:42:53;;;;;;;19.25;6.30;;;4.50;99.90;;;;;;5086012;28;20048;-76
2022/11/26 05:45:19;;;;;;;27.75;8.75;;;4.50;99.90;;;;;;5090187;28;20040;-75
2022/11/26 05:47:45;;;;;;;25.88;6.78;;;4.50;99.90;;;;;;5089983;28;20373;-76
2022/11/26 05:50:10;;;;;;;18.10;5.63;;;4.60;99.90;;;;;;5090549;28;20126;-75
2022/11/26 05:52:36;;;;;;;18.83;5.90;;;4.50;99.90;;;;;;5091368;28;20194;-75
2022/11/26 05:55:02;;;;;;;19.33;7.43;;;4.50;99.90;;;;;;5089759;28;20407;-76
2022/11/26 05:57:27;;;;;;;21.02;6.57;;;4.50;99.90;;;;;;5072666;28;20044;-76
2022/11/26 05:59:53;;;;;;;19.55;7.22;;;4.50;99.90;;;;;;5089744;28;20044;-75
2022/11/26 06:02:18;;;;;;;18.60;5.97;;;4.50;99.90;;;;;;5089142;28;20487;-77
2022/11/26 06:04:44;;;;;;;21.25;6.82;;;4.50;99.90;;;;;;5088685;28;20044;-76
2022/11/26 06:07:10;;;;;;;18.73;6.20;;;4.50;99.90;;;;;;5089922;28;20043;-76
2022/11/26 06:09:35;;;;;;;23.23;6.93;;;6.00;99.90;;;;;;5083755;28;20446;-76
2022/11/26 06:12:02;;;;;;;22.02;7.10;;;4.60;99.90;;;;;;5089629;28;20505;-76
2022/11/26 06:14:27;;;;;;;18.15;6.60;;;4.60;99.90;;;;;;5091282;28;20040;-77
2022/11/26 06:16:53;;;;;;;22.23;7.20;;;4.60;99.90;;;;;;5090775;28;20044;-75
2022/11/26 06:19:19;;;;;;;19.75;6.05;;;4.60;99.90;;;;;;5071874;28;20048;-76
2022/11/26 06:21:44;;;;;;;15.95;6.13;;;4.60;99.90;;;;;;5090789;28;20085;-76
2022/11/26 06:24:10;;;;;;;16.08;6.05;;;4.50;99.90;;;;;;5090086;28;20054;-76
2022/11/26 06:26:36;;;;;;;17.23;5.85;;;4.50;99.90;;;;;;5082255;28;20502;-75
2022/11/26 06:29:02;;;;;;;23.38;6.40;;;4.50;99.90;;;;;;5087610;28;20043;-76
2022/11/26 06:31:28;;;;;;;20.38;6.05;;;4.50;99.90;;;;;;5089523;28;20101;-76
2022/11/26 06:33:55;;;;;;;23.13;6.57;;;4.40;99.90;;;;;;5088391;28;20479;-76
2022/11/26 06:36:21;;;;;;;20.35;6.25;;;4.40;99.90;;;;;;5072138;28;20651;-76
2022/11/26 06:38:47;;;;;;;22.60;6.55;;;4.40;99.90;;;;;;5088329;28;20105;-76
2022/11/26 06:41:12;;;;;;;20.33;7.18;;;4.50;99.90;;;;;;5087737;28;20676;-76
2022/11/26 06:43:38;;;;;;;19.58;6.40;;;4.40;99.90;;;;;;5090483;28;20028;-76
2022/11/26 06:46:07;;;;;;;20.92;6.68;;;4.40;99.90;;;;;;5088066;28;20047;-76
2022/11/26 06:48:33;;;;;;;16.23;6.63;;;4.40;99.90;;;;;;5089248;28;20128;-76
2022/11/26 06:51:11;;;;;;;18.08;7.15;;;4.40;99.90;;;;;;5090000;28;20044;-76
2022/11/26 06:53:37;;;;;;;23.77;6.10;;;3.70;99.90;;;;;;5071563;28;20070;-75
2022/11/26 06:56:06;;;;;;;26.15;7.10;;;4.40;99.90;;;;;;5070659;28;20032;-76
2022/11/26 06:58:32;;;;;;;21.67;7.00;;;4.30;99.90;;;;;;5088832;28;20089;-76
2022/11/26 07:00:58;;;;;;;19.80;7.85;;;4.30;99.90;;;;;;5089312;28;20071;-77
2022/11/26 07:03:25;;;;;;;24.13;7.40;;;4.30;99.90;;;;;;5088405;28;20043;-75
2022/11/26 07:05:51;;;;;;;18.20;7.35;;;4.30;99.90;;;;;;5087990;28;20044;-76
2022/11/26 07:08:17;;;;;;;18.65;6.82;;;4.30;99.90;;;;;;5089291;28;20058;-75
2022/11/26 07:10:42;;;;;;;27.13;8.73;;;4.30;99.90;;;;;;5088545;28;20044;-76
2022/11/26 07:13:08;;;;;;;22.15;7.55;;;4.30;99.90;;;;;;5089107;28;20036;-75
2022/11/26 07:15:34;;;;;;;24.35;7.20;;;4.30;99.90;;;;;;5089428;28;20438;-75
2022/11/26 07:17:59;;;;;;;23.95;7.60;;;4.30;99.90;;;;;;5088221;28;20032;-75
2022/11/26 07:20:25;;;;;;;27.33;8.85;;;4.30;99.90;;;;;;5079879;28;20040;-76
2022/11/26 07:22:52;;;;;;;37.55;12.68;;;4.30;99.90;;;;;;5088852;28;20078;-76
2022/11/26 07:25:18;;;;;;;30.65;11.27;;;4.30;99.90;;;;;;5088026;28;20507;-74
2022/11/26 07:27:44;;;;;;;32.38;10.93;;;4.20;99.90;;;;;;5086454;28;20028;-73
2022/11/26 07:30:11;;;;;;;20.83;8.25;;;4.30;99.90;;;;;;5088779;28;20596;-74
2022/11/26 07:32:36;;;;;;;20.77;8.52;;;4.40;99.90;;;;;;5071317;28;20075;-75
2022/11/26 07:35:03;;;;;;;20.98;8.45;;;4.40;99.90;;;;;;5088348;28;20071;-76
2022/11/26 07:37:28;;;;;;;24.35;8.60;;;4.40;99.90;;;;;;5088412;28;20044;-75
2022/11/26 07:39:54;;;;;;;26.02;8.32;;;4.40;99.90;;;;;;5087880;28;20040;-75
2022/11/26 07:42:22;;;;;;;31.13;10.40;;;4.50;99.90;;;;;;5088075;28;20040;-76
2022/11/26 07:44:48;;;;;;;29.25;10.85;;;4.50;99.90;;;;;;5088185;28;20059;-75
2022/11/26 07:47:14;;;;;;;26.10;9.35;;;4.70;99.90;;;;;;5087838;28;20055;-75
2022/11/26 07:49:39;;;;;;;29.00;8.90;;;4.60;99.90;;;;;;5088995;28;20218;-75
2022/11/26 07:52:05;;;;;;;22.58;8.05;;;4.60;99.90;;;;;;5088777;28;20032;-76
2022/11/26 07:54:31;;;;;;;33.63;9.13;;;4.60;99.90;;;;;;5071485;28;20036;-76
2022/11/26 07:56:56;;;;;;;20.65;7.72;;;4.60;99.90;;;;;;5085380;28;20475;-74
2022/11/26 07:59:22;;;;;;;22.73;8.95;;;4.70;99.90;;;;;;5070812;28;20068;-77
2022/11/26 08:01:48;;;;;;;26.60;9.02;;;4.40;99.90;;;;;;5088220;28;20417;-76
2022/11/26 08:04:13;;;;;;;31.92;10.13;;;4.70;99.90;;;;;;5087837;28;20449;-75
2022/11/26 08:06:39;;;;;;;26.30;9.40;;;4.70;99.90;;;;;;5088186;28;20119;-76
2022/11/26 08:09:06;;;;;;;28.95;9.85;;;6.00;99.90;;;;;;5070646;28;20036;-75
2022/11/26 08:11:32;;;;;;;32.65;9.70;;;4.80;99.90;;;;;;5069134;28;20040;-76
2022/11/26 08:14:04;;;;;;;32.17;10.65;;;4.80;99.90;;;;;;5088686;28;20536;-75
2022/11/26 08:16:31;;;;;;;20.20;8.48;;;4.80;99.90;;;;;;5089470;28;20046;-75
2022/11/26 08:18:58;;;;;;;21.33;8.55;;;4.80;99.90;;;;;;5092156;28;20539;-76
2022/11/26 08:21:24;;;;;;;25.40;9.95;;;4.90;99.90;;;;;;5093072;28;20451;-76
2022/11/26 08:23:52;;;;;;;32.47;10.02;;;4.90;99.90;;;;;;5091530;28;20063;-76
2022/11/26 08:26:18;;;;;;;25.77;8.70;;;4.90;99.90;;;;;;5092101;28;20081;-76
2022/11/26 08:28:45;;;;;;;30.10;10.50;;;5.00;99.90;;;;;;5090736;28;20085;-72
2022/11/26 08:31:13;;;;;;;34.47;10.40;;;5.10;99.90;;;;;;5089307;28;20056;-75
2022/11/26 08:33:39;;;;;;;23.00;9.50;;;6.30;99.90;;;;;;5091299;28;20051;-76
2022/11/26 08:36:06;;;;;;;28.08;9.32;;;5.20;99.90;;;;;;5092203;28;20492;-76
2022/11/26 08:38:32;;;;;;;34.33;12.18;;;5.20;99.90;;;;;;5089523;28;20127;-75
2022/11/26 08:41:07;;;;;;;28.40;12.52;;;5.20;99.90;;;;;;5090137;28;20051;-73
2022/11/26 08:43:36;;;;;;;;;;;5.20;99.90;;;;;;5090007;28;20510;-76
2022/11/26 08:46:02;;;;;;;23.27;9.32;;;5.20;99.90;;;;;;5090252;28;19924;-75
2022/11/26 08:48:29;;;;;;;33.35;8.93;;;5.30;99.90;;;;;;5084807;28;20119;-75
2022/11/26 08:51:00;;;;;;;19.77;9.50;;;5.30;99.90;;;;;;5091453;28;20044;-75
2022/11/26 08:53:30;;;;;;;28.85;9.63;;;5.30;99.90;;;;;;5091123;28;20117;-76
2022/11/26 08:56:07;;;;;;;39.65;10.00;;;5.40;99.90;;;;;;5091069;28;20048;-75
2022/11/26 08:58:34;;;;;;;27.65;8.68;;;5.40;99.90;;;;;;5085089;28;20116;-76
2022/11/26 09:01:21;;;;;;;25.17;8.60;;;5.50;99.90;;;;;;5091074;28;20047;-76
2022/11/26 09:03:48;;;;;;;29.80;8.90;;;5.50;99.90;;;;;;5085287;28;20122;-76
2022/11/26 09:06:14;;;;;;;24.63;9.25;;;5.50;99.90;;;;;;5090509;28;20542;-75
2022/11/26 09:11:26;;;;;;;24.25;8.65;;;5.50;99.90;;;;;;5090086;28;20549;-75
2022/11/26 09:13:52;;;;;;;27.58;8.30;;;5.50;99.90;;;;;;5073200;28;20525;-76
2022/11/26 09:16:18;;;;;;;24.42;9.15;;;5.60;99.90;;;;;;5091643;28;20523;-79
2022/11/26 09:18:44;;;;;;;28.63;8.85;;;5.60;99.90;;;;;;5091736;28;20046;-79
2022/11/26 09:21:09;;;;;;;32.30;9.43;;;5.60;99.90;;;;;;5089773;28;20127;-80
2022/11/26 09:23:35;;;;;;;37.03;9.63;;;5.70;99.90;;;;;;5092537;28;20040;-80
2022/11/26 09:26:01;;;;;;;28.35;9.07;;;5.70;99.90;;;;;;5091681;28;20483;-80
2022/11/26 09:28:27;;;;;;;31.13;9.10;;;5.70;99.90;;;;;;5069269;28;20063;-79
2022/11/26 09:31:00;;;;;;;30.27;9.10;;;5.80;99.90;;;;;;5091647;28;20028;-80
2022/11/26 09:33:26;;;;;;;27.75;9.38;;;5.90;99.90;;;;;;5091816;28;20064;-79
2022/11/26 09:35:52;;;;;;;31.33;9.77;;;5.90;99.90;;;;;;5068978;28;20056;-81
2022/11/26 09:38:17;;;;;;;406.02;367.45;;;5.90;99.90;;;;;;5088811;28;20036;-78
2022/11/26 09:40:54;;;;;;;34.70;29.58;;;6.00;99.90;;;;;;5074113;28;20043;-76
2022/11/26 09:43:27;;;;;;;24.83;9.90;;;6.00;99.90;;;;;;5090100;28;20090;-78
2022/11/26 09:45:58;;;;;;;38.10;9.70;;;6.10;99.90;;;;;;5090884;28;20044;-77
2022/11/26 09:48:26;;;;;;;25.55;8.88;;;6.10;99.90;;;;;;5090293;28;20043;-74
2022/11/26 09:50:58;;;;;;;17.08;8.40;;;6.10;99.90;;;;;;5089564;28;20682;-75
2022/11/26 09:53:29;;;;;;;31.67;9.23;;;6.20;99.90;;;;;;5090132;28;20446;-74
2022/11/26 09:55:55;;;;;;;28.73;9.02;;;6.20;99.90;;;;;;5090966;28;20740;-75
2022/11/26 09:58:31;;;;;;;25.48;9.73;;;7.20;99.90;;;;;;5091023;28;20123;-76
2022/11/26 10:00:59;;;;;;;25.08;10.13;;;6.20;99.90;;;;;;5090787;28;20040;-76
2022/11/26 10:03:33;;;;;;;22.92;10.13;;;6.30;99.90;;;;;;5090537;28;20047;-75
2022/11/26 10:06:20;;;;;;;23.52;9.80;;;6.30;99.90;;;;;;5089957;28;20044;-75
2022/11/26 10:08:58;;;;;;;30.67;11.18;;;6.40;99.90;;;;;;5085791;28;20135;-75
2022/11/26 10:11:58;;;;;;;29.48;9.75;;;6.40;99.90;;;;;;5071281;28;20056;-75
2022/11/26 10:14:51;;;;;;;27.70;10.18;;;6.50;99.90;;;;;;5089790;28;20545;-75
2022/11/26 10:17:33;;;;;;;26.48;10.05;;;6.50;99.90;;;;;;5091002;28;20047;-74
2022/11/26 10:20:27;;;;;;;35.35;10.07;;;6.60;99.90;;;;;;5089938;28;20044;-76
2022/11/26 10:23:01;;;;;;;32.97;11.93;;;6.60;99.90;;;;;;5084522;28;20044;-76
2022/11/26 10:25:29;;;;;;;33.33;10.40;;;6.60;99.90;;;;;;5089108;28;20044;-73
2022/11/26 10:27:57;;;;;;;25.67;10.00;;;6.70;99.90;;;;;;5087131;28;20031;-75
2022/11/26 10:30:28;;;;;;;26.23;10.90;;;6.60;99.90;;;;;;5090426;28;20044;-75
2022/11/26 10:32:57;;;;;;;25.95;9.88;;;6.70;99.90;;;;;;5087486;28;20084;-75
2022/11/26 10:35:28;;;;;;;26.58;10.27;;;6.70;99.90;;;;;;5090651;28;20071;-74
2022/11/26 10:37:57;;;;;;;40.03;12.93;;;6.80;99.90;;;;;;5087912;28;20044;-74
2022/11/26 10:40:31;;;;;;;37.92;10.50;;;6.80;99.90;;;;;;5089124;28;20036;-74
2022/11/26 10:43:18;;;;;;;27.63;10.20;;;6.80;99.90;;;;;;5072230;28;20059;-74
2022/11/26 10:45:49;;;;;;;37.88;11.48;;;6.90;99.90;;;;;;5086126;28;20048;-72
2022/11/26 10:48:25;;;;;;;27.20;10.70;;;6.90;99.90;;;;;;5089941;28;20040;-74
2022/11/26 10:51:10;;;;;;;32.58;10.98;;;7.00;99.90;;;;;;5088571;28;20060;-74
2022/11/26 10:53:53;;;;;;;29.25;10.07;;;7.00;99.90;;;;;;5081500;28;20080;-74
2022/11/26 10:56:26;;;;;;;32.83;12.18;;;7.00;99.90;;;;;;5082706;28;20059;-74
2022/11/26 10:58:53;;;;;;;27.08;11.02;;;7.00;99.90;;;;;;5089807;28;20085;-74
2022/11/26 11:01:19;;;;;;;35.70;12.45;;;7.30;99.90;;;;;;5089520;28;20424;-74
2022/11/26 11:03:52;;;;;;;31.13;10.77;;;7.10;99.90;;;;;;5071654;28;20090;-74
2022/11/26 11:06:17;;;;;;;31.25;11.30;;;7.10;99.90;;;;;;5087055;28;20060;-74
2022/11/26 11:08:44;;;;;;;34.70;11.77;;;7.40;99.90;;;;;;5089972;28;20039;-75
2022/11/26 11:11:30;;;;;;;32.53;11.95;;;7.10;99.90;;;;;;5088583;28;20050;-74
2022/11/26 11:13:56;;;;;;;32.35;12.20;;;7.20;99.90;;;;;;5089730;28;20043;-74
2022/11/26 11:16:28;;;;;;;30.80;11.05;;;7.20;99.90;;;;;;5089198;28;20048;-73
2022/11/26 11:18:58;;;;;;;29.17;11.95;;;7.20;99.90;;;;;;5087600;28;20044;-73
2022/11/26 11:21:29;;;;;;;39.58;12.90;;;7.20;99.90;;;;;;5088327;28;20089;-74
2022/11/26 11:24:12;;;;;;;32.05;11.85;;;7.30;99.90;;;;;;5077823;28;20123;-75
2022/11/26 11:26:42;;;;;;;28.55;10.75;;;7.40;99.90;;;;;;5086964;28;20051;-75
2022/11/26 11:29:22;;;;;;;30.33;11.85;;;7.60;99.90;;;;;;5098182;28;20033;-75
2022/11/26 11:31:48;;;;;;;41.45;14.35;;;8.50;99.90;;;;;;5088096;28;20056;-75
2022/11/26 11:34:21;;;;;;;35.83;12.13;;;7.50;99.90;;;;;;5088050;28;20079;-74
2022/11/26 11:37:02;;;;;;;38.78;11.63;;;7.50;99.90;;;;;;5071371;28;20517;-74
2022/11/26 11:39:32;;;;;;;29.58;12.40;;;7.50;99.90;;;;;;5074182;28;20051;-75
2022/11/26 11:42:01;;;;;;;32.10;12.10;;;7.50;99.90;;;;;;5089182;28;20416;-74
2022/11/26 11:44:41;;;;;;;34.15;11.63;;;7.50;99.90;;;;;;5078576;28;20044;-74
2022/11/26 11:47:25;;;;;;;31.77;12.88;;;7.60;99.90;;;;;;5070298;28;20051;-74
2022/11/26 11:50:07;;;;;;;37.55;12.77;;;7.60;99.90;;;;;;5071184;28;20039;-76
2022/11/26 11:52:53;;;;;;;27.65;12.00;;;7.60;99.90;;;;;;5090253;28;20055;-75
2022/11/26 11:55:29;;;;;;;36.22;12.20;;;7.60;99.90;;;;;;5092974;28;20044;-74
2022/11/26 11:58:09;;;;;;;32.47;11.35;;;7.70;99.90;;;;;;5092358;28;20085;-75
2022/11/26 12:00:54;;;;;;;28.45;10.32;;;7.70;99.90;;;;;;5085962;28;20043;-75
2022/11/26 12:03:20;;;;;;;36.78;13.73;;;7.70;99.90;;;;;;5116281;27;20044;-74
2022/11/26 12:06:01;;;;;;;35.03;11.35;;;7.80;99.90;;;;;;5092227;28;20444;-75
2022/11/26 12:08:36;;;;;;;35.17;10.82;;;7.70;99.90;;;;;;5090724;28;20136;-74
2022/11/26 12:11:15;;;;;;;38.45;11.25;;;7.80;99.90;;;;;;5091390;28;20373;-75
2022/11/26 12:14:01;;;;;;;27.50;10.77;;;7.80;99.90;;;;;;5085159;28;20036;-75
2022/11/26 12:16:35;;;;;;;29.95;11.05;;;7.80;99.90;;;;;;5092365;28;20553;-74
2022/11/26 12:19:17;;;;;;;31.90;12.30;;;7.80;99.90;;;;;;5071123;28;20365;-72
2022/11/26 12:21:52;;;;;;;38.45;11.93;;;7.80;99.90;;;;;;5090448;28;20052;-74
2022/11/26 12:24:36;;;;;;;29.98;11.10;;;7.90;99.90;;;;;;5091697;28;20044;-75
2022/11/26 12:27:09;;;;;;;31.20;10.97;;;7.90;99.90;;;;;;5087047;28;20119;-78
2022/11/26 12:29:41;;;;;;;32.97;11.10;;;7.90;99.90;;;;;;5085221;28;20282;-75
2022/11/26 12:32:41;;;;;;;30.00;10.65;;;7.90;99.90;;;;;;5084897;28;20052;-77
2022/11/26 12:35:14;;;;;;;26.60;10.38;;;8.00;99.90;;;;;;5083027;28;20094;-74
2022/11/26 12:37:41;;;;;;;30.80;11.38;;;8.00;99.90;;;;;;5082314;28;20090;-82
2022/11/26 12:40:32;;;;;;;22.17;9.73;;;8.00;99.90;;;;;;5087267;28;20109;-79
2022/11/26 12:43:15;;;;;;;37.00;11.32;;;8.00;99.90;;;;;;5087191;28;20054;-74
2022/11/26 12:46:01;;;;;;;32.42;11.05;;;8.00;99.90;;;;;;5076090;28;20445;-74
2022/11/26 12:48:44;;;;;;;40.60;12.02;;;8.10;99.90;;;;;;5086333;28;20051;-74
2022/11/26 12:51:41;;;;;;;40.92;12.32;;;8.10;99.90;;;;;;5083035;28;20559;-74
2022/11/26 12:54:45;;;;;;;32.58;10.95;;;8.10;99.90;;;;;;4755933;28;10000969;-75
2022/11/26 12:57:23;;;;;;;28.30;10.13;;;8.10;99.90;;;;;;5068107;28;20500;-75
2022/11/26 12:59:55;;;;;;;32.88;11.15;;;8.10;99.90;;;;;;5072058;28;20480;-75
2022/11/26 13:02:31;;;;;;;31.67;10.75;;;8.20;99.90;;;;;;5064265;28;20097;-76